82V

Pine Bluffs Municipal Airport

Pine Bluffs, Wyoming, USA
METAR K82V 201815Z AUTO 13022KT 10SM SCT019 SCT026 BKN060 06/00 A3001 RMK AO2 PWINO
Observed Flight Rules
Apr-20 @ 18:15 UTC (13 minutes ago) Visual Flight Rules
Wind Visibility Clouds
130° at 22 knots 10 miles
  • Scattered at 1,900' AGL
  • Scattered at 2,600' AGL
  • Broken at 6,000' AGL
Temperatures Readings
Current 6°C / 43°F
Dewpoint 0°C / 32°F
Humidity 66%
Altimeter 30.01" Hg
Pressure 1016 hPa
Elevation 1570
METAR K82V 201815Z AUTO 13022KT 10SM SCT019 SCT026 BKN060 06/00 A3001 RMK AO2 PWINO
Observed Flight Rules
Apr-20 @ 18:15 UTC
(13 minutes ago)
VFR
Wind Visibility
130° at 22 knots 10 miles
Clouds
  • Scattered at 1,900' AGL
  • Scattered at 2,600' AGL
  • Broken at 6,000' AGL
Temperature Dewpoint
6°C / 43°F 0°C / 32°F
Humidity Altimeter Pressure
66% 30.01" Hg 1016 hPa